createdAt,value
2023-01-02T00:00:32.453Z,77.62
2023-01-02T00:01:34.174Z,77.46
2023-01-02T00:02:36.783Z,77.67
2023-01-02T00:03:38.761Z,77.93
2023-01-02T00:04:42.975Z,77.76
2023-01-02T00:05:45.961Z,77.70
2023-01-02T00:06:47.494Z,77.80
2023-01-02T00:07:59.964Z,77.75
2023-01-02T00:09:02.014Z,77.65
2023-01-02T00:10:05.594Z,77.77
2023-01-02T00:11:08.061Z,77.79
2023-01-02T00:12:10.566Z,77.89
2023-01-02T00:13:12.537Z,78.02
2023-01-02T00:14:14.999Z,77.93
2023-01-02T00:15:16.713Z,77.82
2023-01-02T00:16:20.024Z,77.88
2023-01-02T00:17:22.437Z,78.04
2023-01-02T00:18:25.255Z,77.87
2023-01-02T00:19:27.780Z,78.06
2023-01-02T00:20:31.624Z,78.07
2023-01-02T00:21:33.117Z,77.83
2023-01-02T00:22:35.634Z,77.78
2023-01-02T00:23:37.741Z,77.97
2023-01-02T00:24:40.274Z,77.80
2023-01-02T00:25:41.974Z,77.82
2023-01-02T00:26:44.460Z,78.16
2023-01-02T00:27:46.974Z,78.13
2023-01-02T00:28:49.455Z,77.97
2023-01-02T00:29:50.985Z,78.19
2023-01-02T00:30:53.557Z,78.17
2023-01-02T00:31:55.089Z,78.01
2023-01-02T00:32:57.586Z,78.06
2023-01-02T00:33:59.100Z,78.17
2023-01-02T00:35:02.005Z,77.88
2023-01-02T00:36:08.156Z,78.11
2023-01-02T00:37:09.729Z,78.22
2023-01-02T00:38:12.232Z,78.02
2023-01-02T00:39:14.750Z,78.26
2023-01-02T00:40:16.270Z,78.37
2023-01-02T00:41:18.836Z,78.09
2023-01-02T00:42:20.369Z,78.16
2023-01-02T00:43:23.016Z,78.28
2023-01-02T00:44:24.546Z,78.51
2023-01-02T00:45:27.117Z,78.59
2023-01-02T00:46:28.683Z,78.36
2023-01-02T00:47:31.194Z,78.39
2023-01-02T00:48:33.030Z,78.62
2023-01-02T00:49:35.860Z,78.24
2023-01-02T00:50:38.080Z,78.69
2023-01-02T00:51:42.310Z,78.83
2023-01-02T00:52:44.946Z,79.06
2023-01-02T00:53:48.574Z,78.81
2023-01-02T00:55:01.087Z,78.89
2023-01-02T00:56:05.128Z,79.10
2023-01-02T00:57:07.637Z,79.20
2023-01-02T00:58:10.293Z,79.17
2023-01-02T00:59:12.764Z,79.08
2023-01-02T01:00:23.412Z,79.18
2023-01-02T01:01:26.713Z,79.21
2023-01-02T01:02:38.024Z,79.11
2023-01-02T01:03:43.247Z,79.49
2023-01-02T01:04:44.774Z,79.55
2023-01-02T01:05:47.259Z,79.46
2023-01-02T01:06:51.065Z,79.74
2023-01-02T01:07:54.011Z,79.43
2023-01-02T01:08:56.485Z,79.77
2023-01-02T01:09:58.009Z,79.56
2023-01-02T01:11:06.052Z,79.88
2023-01-02T01:12:07.931Z,79.81
2023-01-02T01:13:10.431Z,79.57
2023-01-02T01:14:12.028Z,79.82
2023-01-02T01:15:14.596Z,79.90
2023-01-02T01:16:19.005Z,79.99
2023-01-02T01:17:21.607Z,80.23
2023-01-02T01:18:23.120Z,80.39
2023-01-02T01:19:25.593Z,80.35
2023-01-02T01:20:27.138Z,80.24
2023-01-02T01:21:29.647Z,80.03
2023-01-02T01:22:32.927Z,80.28
2023-01-02T01:23:35.475Z,80.18
2023-01-02T01:24:37.036Z,80.11
2023-01-02T01:25:39.545Z,80.44
2023-01-02T01:26:41.326Z,80.25
2023-01-02T01:27:44.349Z,80.42
2023-01-02T01:28:46.564Z,80.47
2023-01-02T01:29:49.925Z,80.26
2023-01-02T01:30:51.832Z,80.53
2023-01-02T01:31:54.366Z,80.23
2023-01-02T01:32:55.907Z,80.48
2023-01-02T01:33:58.471Z,80.29
2023-01-02T01:35:00.028Z,80.31
2023-01-02T01:36:03.710Z,80.50
2023-01-02T01:37:06.185Z,80.37
2023-01-02T01:38:09.039Z,80.49
2023-01-02T01:39:11.608Z,80.57
2023-01-02T01:40:14.333Z,80.56
2023-01-02T01:41:20.378Z,80.57
2023-01-02T01:42:24.355Z,80.58
2023-01-02T01:43:41.895Z,80.70
2023-01-02T01:44:46.606Z,80.60
2023-01-02T01:45:49.104Z,80.70
2023-01-02T01:46:50.706Z,80.72
2023-01-02T01:47:55.961Z,80.59
2023-01-02T01:49:04.228Z,80.49
2023-01-02T01:50:11.593Z,80.57
2023-01-02T01:51:14.248Z,80.69
2023-01-02T01:52:19.657Z,80.54
2023-01-02T01:53:23.688Z,80.52
2023-01-02T01:54:31.116Z,80.41
2023-01-02T01:55:36.597Z,80.45
2023-01-02T01:56:44.274Z,80.55
2023-01-02T01:57:51.305Z,80.20
2023-01-02T01:58:54.276Z,80.41
2023-01-02T01:59:57.037Z,80.21
2023-01-02T02:00:59.946Z,80.39
2023-01-02T02:02:02.511Z,80.23
2023-01-02T02:03:19.444Z,80.23
2023-01-02T02:04:23.954Z,80.18
2023-01-02T02:05:30.225Z,80.27
2023-01-02T02:06:33.265Z,80.10
2023-01-02T02:07:41.227Z,79.88
2023-01-02T02:08:49.664Z,79.93
2023-01-02T02:09:56.084Z,79.88
2023-01-02T02:10:58.991Z,79.83
2023-01-02T02:12:02.094Z,79.74
2023-01-02T02:13:04.061Z,79.71
2023-01-02T02:14:06.857Z,79.45
2023-01-02T02:15:16.834Z,79.69
2023-01-02T02:16:29.438Z,79.43
2023-01-02T02:17:42.181Z,79.55
2023-01-02T02:19:15.706Z,79.48
2023-01-02T02:20:31.344Z,79.53
2023-01-02T02:21:59.917Z,79.32
2023-01-02T02:23:32.494Z,79.08
2023-01-02T02:25:09.865Z,79.46
2023-01-02T02:26:41.074Z,79.36
2023-01-02T02:28:02.542Z,79.35
2023-01-02T02:29:45.832Z,79.21
2023-01-02T02:30:53.428Z,79.10
2023-01-02T02:32:05.414Z,78.90
2023-01-02T02:33:18.065Z,78.87
2023-01-02T02:34:25.630Z,79.10
2023-01-02T02:35:38.689Z,78.99
2023-01-02T02:36:50.726Z,78.72
2023-01-02T02:37:59.310Z,78.80
2023-01-02T02:39:10.432Z,78.58
2023-01-02T02:40:20.451Z,78.57
2023-01-02T02:41:33.088Z,78.77
2023-01-02T02:42:47.346Z,78.71
2023-01-02T02:43:59.678Z,78.61
2023-01-02T02:45:11.468Z,78.73
2023-01-02T02:46:19.832Z,78.70
2023-01-02T02:47:31.606Z,78.42
2023-01-02T02:48:46.764Z,78.72
2023-01-02T02:49:55.979Z,78.61
2023-01-02T02:51:02.876Z,78.68
2023-01-02T02:52:12.681Z,78.73
2023-01-02T02:53:20.991Z,78.64
2023-01-02T02:54:31.397Z,78.26
2023-01-02T02:55:40.044Z,78.50
2023-01-02T02:56:44.764Z,78.41
2023-01-02T02:57:48.497Z,78.62
2023-01-02T02:58:50.610Z,78.57
2023-01-02T02:59:53.786Z,78.49
2023-01-02T03:01:03.390Z,78.76
2023-01-02T03:02:06.297Z,78.65
2023-01-02T03:03:15.827Z,78.66
2023-01-02T03:04:19.722Z,78.68
2023-01-02T03:05:28.902Z,78.41
2023-01-02T03:06:48.697Z,78.57
2023-01-02T03:07:55.545Z,78.87
2023-01-02T03:09:10.724Z,79.00
2023-01-02T03:10:21.985Z,79.10
2023-01-02T03:11:33.694Z,78.93
2023-01-02T03:12:44.628Z,78.96
2023-01-02T03:13:59.926Z,78.97
2023-01-02T03:15:11.963Z,79.05
2023-01-02T03:16:23.370Z,79.07
2023-01-02T03:17:34.109Z,79.22
2023-01-02T03:18:42.258Z,79.01
2023-01-02T03:19:50.358Z,79.22
2023-01-02T03:21:01.878Z,79.03
2023-01-02T03:22:08.764Z,79.22
2023-01-02T03:23:19.021Z,79.05
2023-01-02T03:24:22.584Z,79.28
2023-01-02T03:25:26.289Z,79.21
2023-01-02T03:26:31.368Z,79.37
2023-01-02T03:27:38.862Z,79.25
2023-01-02T03:28:43.785Z,79.30
2023-01-02T03:29:51.294Z,79.40
2023-01-02T03:30:57.519Z,79.17
2023-01-02T03:32:02.759Z,79.18
2023-01-02T03:33:08.826Z,79.45
2023-01-02T03:34:15.322Z,79.41
2023-01-02T03:35:21.332Z,79.43
2023-01-02T03:36:28.477Z,79.41
2023-01-02T03:37:34.120Z,79.60
2023-01-02T03:38:42.234Z,79.62
2023-01-02T03:39:51.440Z,79.50
2023-01-02T03:41:02.600Z,79.39
2023-01-02T03:42:09.629Z,79.93
2023-01-02T03:43:16.513Z,79.84
2023-01-02T03:44:21.439Z,79.72
2023-01-02T03:45:26.262Z,79.56
2023-01-02T03:46:34.139Z,79.66
2023-01-02T03:47:41.030Z,79.67
2023-01-02T03:48:49.199Z,79.67
2023-01-02T03:49:54.823Z,79.52
2023-01-02T03:51:00.168Z,79.46
2023-01-02T03:52:02.316Z,79.55
2023-01-02T03:53:04.960Z,79.33
2023-01-02T03:54:16.396Z,79.59
2023-01-02T03:55:23.499Z,79.44
2023-01-02T03:56:49.230Z,79.37
2023-01-02T03:57:57.699Z,79.39
2023-01-02T03:59:09.861Z,79.34
2023-01-02T04:00:14.964Z,79.50
2023-01-02T04:01:26.380Z,79.24
2023-01-02T04:02:36.077Z,79.36
2023-01-02T04:03:46.600Z,79.37
2023-01-02T04:04:54.107Z,79.18
2023-01-02T04:06:05.685Z,79.52
2023-01-02T04:07:11.837Z,79.31
2023-01-02T04:08:21.947Z,79.21
2023-01-02T04:09:27.770Z,79.15
2023-01-02T04:10:31.064Z,79.01
2023-01-02T04:11:36.562Z,79.06
2023-01-02T04:12:42.255Z,78.90
2023-01-02T04:13:49.719Z,78.89
2023-01-02T04:14:53.690Z,78.90
2023-01-02T04:15:57.317Z,78.94
2023-01-02T04:17:03.357Z,78.96
2023-01-02T04:18:10.566Z,79.10
2023-01-02T04:19:18.447Z,78.81
2023-01-02T04:20:24.618Z,78.84
2023-01-02T04:21:31.246Z,78.85
2023-01-02T04:22:39.732Z,78.71
2023-01-02T04:23:45.384Z,78.77
2023-01-02T04:24:54.568Z,78.86
2023-01-02T04:26:02.614Z,78.67
2023-01-02T04:27:08.082Z,78.61
2023-01-02T04:28:17.824Z,78.64
2023-01-02T04:29:19.400Z,78.56
2023-01-02T04:30:22.410Z,78.59
2023-01-02T04:31:28.752Z,78.39
2023-01-02T04:32:35.566Z,78.68
2023-01-02T04:33:50.026Z,78.37
2023-01-02T04:34:57.540Z,78.35
2023-01-02T04:36:08.059Z,78.41
2023-01-02T04:37:10.599Z,78.39
2023-01-02T04:38:12.917Z,78.42
2023-01-02T04:39:15.452Z,78.22
2023-01-02T04:40:22.320Z,78.06
2023-01-02T04:41:27.723Z,78.14
2023-01-02T04:42:30.556Z,78.07
2023-01-02T04:43:32.214Z,77.76
2023-01-02T04:44:34.786Z,77.60
2023-01-02T04:45:36.328Z,77.80
2023-01-02T04:46:38.813Z,77.86
2023-01-02T04:47:40.597Z,77.92
2023-01-02T04:48:43.047Z,77.44
2023-01-02T04:49:44.722Z,77.73
2023-01-02T04:50:56.312Z,77.63
2023-01-02T04:51:59.356Z,77.65
2023-01-02T04:53:02.180Z,77.71
2023-01-02T04:54:04.090Z,77.58
2023-01-02T04:55:08.166Z,77.47
2023-01-02T04:56:09.806Z,77.38
2023-01-02T04:57:12.544Z,77.40
2023-01-02T04:58:14.231Z,77.39
2023-01-02T04:59:17.053Z,77.23
2023-01-02T05:00:18.637Z,76.88
2023-01-02T05:01:23.415Z,77.19
2023-01-02T05:02:25.113Z,77.22
2023-01-02T05:03:28.168Z,77.15
2023-01-02T05:04:29.896Z,77.01
2023-01-02T05:05:33.993Z,77.09
2023-01-02T05:06:38.302Z,77.17
2023-01-02T05:07:42.397Z,76.71
2023-01-02T05:08:53.970Z,77.00
2023-01-02T05:09:56.935Z,76.78
2023-01-02T05:11:05.050Z,76.56
2023-01-02T05:12:07.594Z,76.82
2023-01-02T05:13:09.175Z,76.89
2023-01-02T05:14:11.686Z,76.62
2023-01-02T05:15:13.205Z,76.62
2023-01-02T05:16:23.865Z,76.75
2023-01-02T05:17:25.995Z,76.60
2023-01-02T05:18:29.606Z,76.34
2023-01-02T05:19:32.120Z,76.50
2023-01-02T05:20:33.682Z,76.42
2023-01-02T05:21:53.710Z,76.45
2023-01-02T05:23:15.113Z,76.64
2023-01-02T05:25:11.532Z,76.68
2023-01-02T05:26:13.561Z,76.67
2023-01-02T05:27:16.312Z,76.45
2023-01-02T05:28:17.859Z,76.50
2023-01-02T05:29:20.379Z,76.82
2023-01-02T05:30:22.275Z,76.84
2023-01-02T05:31:25.288Z,76.74
2023-01-02T05:32:27.466Z,76.48
2023-01-02T05:33:29.935Z,76.85
2023-01-02T05:34:32.449Z,76.82
2023-01-02T05:35:33.986Z,76.81
2023-01-02T05:36:36.534Z,76.75
2023-01-02T05:37:39.018Z,77.07
2023-01-02T05:38:41.877Z,77.22
2023-01-02T05:39:44.378Z,76.90
2023-01-02T05:40:45.963Z,77.12
2023-01-02T05:41:48.595Z,77.35
2023-01-02T05:42:50.119Z,77.22
2023-01-02T05:43:52.656Z,77.29
2023-01-02T05:44:54.197Z,77.42
2023-01-02T05:45:56.701Z,77.43
2023-01-02T05:46:58.707Z,77.24
2023-01-02T05:48:01.229Z,77.54
2023-01-02T05:49:04.403Z,77.57
2023-01-02T05:50:08.265Z,77.62
2023-01-02T05:51:13.167Z,77.69
2023-01-02T05:52:16.061Z,77.68
2023-01-02T05:53:17.778Z,78.04
2023-01-02T05:54:21.610Z,78.21
2023-01-02T05:55:23.224Z,78.22
2023-01-02T05:56:27.937Z,78.11
2023-01-02T05:57:29.992Z,78.32
2023-01-02T05:58:45.580Z,78.14
2023-01-02T05:59:47.574Z,78.30
2023-01-02T06:00:50.383Z,78.25
2023-01-02T06:01:53.033Z,78.45
2023-01-02T06:02:56.106Z,78.26
2023-01-02T06:03:58.983Z,78.49
2023-01-02T06:05:01.526Z,78.68
2023-01-02T06:06:04.668Z,78.23
2023-01-02T06:07:07.148Z,78.68
2023-01-02T06:08:08.681Z,78.91
2023-01-02T06:09:14.638Z,78.84
2023-01-02T06:10:17.595Z,78.69
2023-01-02T06:11:20.444Z,78.82
2023-01-02T06:12:22.051Z,78.75
2023-01-02T06:13:24.596Z,79.11
2023-01-02T06:14:26.153Z,79.17
2023-01-02T06:15:28.646Z,79.25
2023-01-02T06:16:30.305Z,79.17
2023-01-02T06:17:32.855Z,79.27
2023-01-02T06:18:36.261Z,79.34
2023-01-02T06:19:38.734Z,79.38
2023-01-02T06:20:40.309Z,79.66
2023-01-02T06:21:42.793Z,79.54
2023-01-02T06:22:44.555Z,79.31
2023-01-02T06:23:47.863Z,79.73
2023-01-02T06:24:49.393Z,79.78
2023-01-02T06:25:53.281Z,79.34
2023-01-02T06:26:55.609Z,79.59
2023-01-02T06:27:58.074Z,79.40
2023-01-02T06:28:59.724Z,79.72
2023-01-02T06:30:02.199Z,79.60
2023-01-02T06:31:06.995Z,79.49
2023-01-02T06:32:09.904Z,79.79
2023-01-02T06:33:12.112Z,79.63
2023-01-02T06:34:14.946Z,79.79
2023-01-02T06:35:16.496Z,79.88
2023-01-02T06:36:20.205Z,79.60
2023-01-02T06:37:24.155Z,79.91
2023-01-02T06:38:37.088Z,79.53
2023-01-02T06:39:38.841Z,79.70
2023-01-02T06:40:41.731Z,79.79
2023-01-02T06:41:44.667Z,79.83
2023-01-02T06:42:47.167Z,79.55
2023-01-02T06:43:50.350Z,79.82
2023-01-02T06:44:52.833Z,79.56
2023-01-02T06:45:57.507Z,79.68
2023-01-02T06:47:00.096Z,79.70
2023-01-02T06:48:02.613Z,79.54
2023-01-02T06:49:05.211Z,79.51
2023-01-02T06:50:07.417Z,79.47
2023-01-02T06:51:22.306Z,79.37
2023-01-02T06:52:34.799Z,79.68
2023-01-02T06:53:38.521Z,79.59
2023-01-02T06:54:41.031Z,79.59
2023-01-02T06:55:51.351Z,79.58
2023-01-02T06:56:55.212Z,79.49
2023-01-02T06:57:57.385Z,79.46
2023-01-02T06:59:00.282Z,79.51
2023-01-02T07:00:02.296Z,79.64
2023-01-02T07:01:09.156Z,79.36
2023-01-02T07:02:12.670Z,79.51
2023-01-02T07:03:16.243Z,79.36
2023-01-02T07:04:19.707Z,79.66
2023-01-02T07:05:24.871Z,79.34
2023-01-02T07:06:28.578Z,79.49
2023-01-02T07:07:30.589Z,79.71
2023-01-02T07:08:34.099Z,79.48
2023-01-02T07:09:35.638Z,79.42
2023-01-02T07:10:38.334Z,79.70
2023-01-02T07:11:40.926Z,79.57
2023-01-02T07:12:44.761Z,79.71
2023-01-02T07:13:48.677Z,79.57
2023-01-02T07:14:50.195Z,79.51
2023-01-02T07:15:53.087Z,79.57
2023-01-02T07:16:55.602Z,79.54
2023-01-02T07:17:57.157Z,79.87
2023-01-02T07:18:59.663Z,79.40
2023-01-02T07:20:02.495Z,79.32
2023-01-02T07:21:05.986Z,79.76
2023-01-02T07:22:07.523Z,79.84
2023-01-02T07:23:10.006Z,79.68
2023-01-02T07:24:12.797Z,79.68
2023-01-02T07:25:15.408Z,79.87
2023-01-02T07:26:17.267Z,79.84
2023-01-02T07:27:19.818Z,79.95
2023-01-02T07:28:24.407Z,79.97
2023-01-02T07:29:26.665Z,80.07
2023-01-02T07:30:39.416Z,80.05
2023-01-02T07:31:51.911Z,79.94
2023-01-02T07:32:55.027Z,80.05
2023-01-02T07:33:59.207Z,79.93
2023-01-02T07:35:01.770Z,80.08
2023-01-02T07:36:05.988Z,80.36
2023-01-02T07:37:08.696Z,80.07
2023-01-02T07:38:11.300Z,80.04
2023-01-02T07:39:13.876Z,80.39
2023-01-02T07:40:16.428Z,80.28
2023-01-02T07:41:21.314Z,80.42
2023-01-02T07:42:22.871Z,80.56
2023-01-02T07:43:27.587Z,80.55
2023-01-02T07:44:30.165Z,80.63
2023-01-02T07:45:32.950Z,80.51
2023-01-02T07:46:35.623Z,80.51
2023-01-02T07:47:37.493Z,80.59
2023-01-02T07:48:40.303Z,80.78
2023-01-02T07:49:42.893Z,80.80
2023-01-02T07:50:46.067Z,81.08
2023-01-02T07:51:47.786Z,80.69
2023-01-02T07:52:50.719Z,80.87
2023-01-02T07:53:53.356Z,81.04
2023-01-02T07:54:55.885Z,81.01
2023-01-02T07:55:59.195Z,81.29
2023-01-02T07:57:01.743Z,81.11
2023-01-02T07:58:03.610Z,81.29
2023-01-02T07:59:07.727Z,81.06
2023-01-02T08:00:10.827Z,81.29
2023-01-02T08:01:15.906Z,81.37
2023-01-02T08:02:18.392Z,81.48
2023-01-02T08:03:21.935Z,81.71
2023-01-02T08:04:25.852Z,81.86
2023-01-02T08:05:28.418Z,81.95
2023-01-02T08:06:31.167Z,81.78
2023-01-02T08:07:32.831Z,81.81
2023-01-02T08:08:36.045Z,82.03
2023-01-02T08:09:38.575Z,82.05
2023-01-02T08:10:41.592Z,82.33
2023-01-02T08:11:52.063Z,82.05
2023-01-02T08:12:54.583Z,82.23
2023-01-02T08:13:56.911Z,82.39
2023-01-02T08:15:00.826Z,82.19
2023-01-02T08:16:04.663Z,82.35
2023-01-02T08:17:07.182Z,82.50
2023-01-02T08:18:08.743Z,82.44
2023-01-02T08:19:11.268Z,82.56
2023-01-02T08:20:13.886Z,82.61
2023-01-02T08:21:15.501Z,82.35
2023-01-02T08:22:18.016Z,82.63
2023-01-02T08:23:19.544Z,82.67
2023-01-02T08:24:22.051Z,82.58
2023-01-02T08:25:23.565Z,82.64
2023-01-02T08:26:26.058Z,82.66
2023-01-02T08:27:27.619Z,82.43
2023-01-02T08:28:30.762Z,82.77
2023-01-02T08:29:33.692Z,82.71
2023-01-02T08:30:36.640Z,82.69
2023-01-02T08:31:43.673Z,82.46
2023-01-02T08:32:46.610Z,82.71
2023-01-02T08:33:49.171Z,82.67
2023-01-02T08:34:50.931Z,82.67
2023-01-02T08:36:02.765Z,82.65
2023-01-02T08:37:15.637Z,82.84
2023-01-02T08:38:28.145Z,82.72
2023-01-02T08:39:31.771Z,82.64
2023-01-02T08:40:34.432Z,82.96
2023-01-02T08:41:38.715Z,82.86
2023-01-02T08:42:41.817Z,83.29
2023-01-02T08:43:44.289Z,82.92
2023-01-02T08:44:46.796Z,83.16
2023-01-02T08:45:50.663Z,83.31
2023-01-02T08:46:53.248Z,83.17
2023-01-02T08:47:55.697Z,82.95
2023-01-02T08:48:58.235Z,83.20
2023-01-02T08:50:00.712Z,83.28
2023-01-02T08:51:02.490Z,83.11
2023-01-02T08:52:05.185Z,83.29
2023-01-02T08:53:12.626Z,83.20
2023-01-02T08:54:15.429Z,83.11
2023-01-02T08:55:18.825Z,82.67
2023-01-02T08:56:23.085Z,82.61
2023-01-02T08:57:25.856Z,82.95
2023-01-02T08:58:27.425Z,82.99
2023-01-02T08:59:29.908Z,83.21
2023-01-02T09:00:31.413Z,83.63
2023-01-02T09:01:35.979Z,83.71
2023-01-02T09:02:38.844Z,83.79
2023-01-02T09:03:40.502Z,83.88
2023-01-02T09:04:43.039Z,83.91
2023-01-02T09:05:45.512Z,84.21
2023-01-02T09:06:48.610Z,84.37
2023-01-02T09:07:52.546Z,84.33
2023-01-02T09:08:58.347Z,84.12
2023-01-02T09:10:01.067Z,84.34
2023-01-02T09:11:10.332Z,84.29
2023-01-02T09:12:22.899Z,84.22
2023-01-02T09:13:35.427Z,84.22
2023-01-02T09:14:38.636Z,84.37
2023-01-02T09:15:45.287Z,84.33
2023-01-02T09:16:49.046Z,84.49
2023-01-02T09:17:51.518Z,84.48
2023-01-02T09:18:56.656Z,84.52
2023-01-02T09:19:59.148Z,84.47
2023-01-02T09:21:01.749Z,84.34
2023-01-02T09:22:04.335Z,84.22
2023-01-02T09:23:05.877Z,84.41
2023-01-02T09:24:09.174Z,84.56
2023-01-02T09:25:11.697Z,84.29
2023-01-02T09:26:15.297Z,84.34
2023-01-02T09:27:17.765Z,84.28
2023-01-02T09:28:20.252Z,84.19
2023-01-02T09:29:22.888Z,84.42
2023-01-02T09:30:24.540Z,84.27
2023-01-02T09:31:27.206Z,84.27
2023-01-02T09:32:31.539Z,84.19
2023-01-02T09:33:33.695Z,84.37
2023-01-02T09:34:36.210Z,84.08
2023-01-02T09:35:38.930Z,84.34
2023-01-02T09:36:41.433Z,84.44
2023-01-02T09:37:44.328Z,84.44
2023-01-02T09:38:52.019Z,84.31
2023-01-02T09:39:54.525Z,84.44
2023-01-02T09:40:57.734Z,84.28
2023-01-02T09:42:01.612Z,84.06
2023-01-02T09:43:03.312Z,84.39
2023-01-02T09:44:12.265Z,84.48
2023-01-02T09:45:14.729Z,84.19
2023-01-02T09:46:25.870Z,84.24
2023-01-02T09:47:29.712Z,84.41
2023-01-02T09:48:37.222Z,84.32
2023-01-02T09:49:43.312Z,84.39
2023-01-02T09:50:47.465Z,84.35
2023-01-02T09:51:50.950Z,84.32
2023-01-02T09:52:56.633Z,84.46
2023-01-02T09:53:58.309Z,84.49
2023-01-02T09:55:01.307Z,84.39
2023-01-02T09:56:11.309Z,84.36
2023-01-02T09:57:25.878Z,84.34
2023-01-02T09:58:37.062Z,84.49
2023-01-02T09:59:50.061Z,84.55
2023-01-02T10:00:51.678Z,84.53
2023-01-02T10:02:04.380Z,84.37
2023-01-02T10:03:19.677Z,84.34
2023-01-02T10:04:34.315Z,84.43
2023-01-02T10:06:08.588Z,84.21
2023-01-02T10:07:17.685Z,84.43
2023-01-02T10:08:32.181Z,84.22
2023-01-02T10:09:53.792Z,84.20
2023-01-02T10:11:23.164Z,84.00
2023-01-02T10:12:33.075Z,84.40
2023-01-02T10:15:07.668Z,84.25
2023-01-02T10:16:18.804Z,84.28
2023-01-02T10:17:22.135Z,84.42
2023-01-02T10:18:27.762Z,84.24
2023-01-02T10:19:42.244Z,83.92
2023-01-02T10:20:51.669Z,84.10
2023-01-02T10:21:59.898Z,84.10
2023-01-02T10:23:07.646Z,84.10
2023-01-02T10:24:17.462Z,84.20
2023-01-02T10:25:23.155Z,84.17
2023-01-02T10:26:33.359Z,84.18
2023-01-02T10:27:40.482Z,83.86
2023-01-02T10:28:49.526Z,83.88
2023-01-02T10:30:01.587Z,83.95
2023-01-02T10:31:11.090Z,83.82
2023-01-02T10:32:17.779Z,84.00
2023-01-02T10:33:26.274Z,83.79
2023-01-02T10:34:39.352Z,83.71
2023-01-02T10:35:44.705Z,83.73
2023-01-02T10:36:46.721Z,83.80
2023-01-02T10:37:49.278Z,83.54
2023-01-02T10:38:52.754Z,83.59
2023-01-02T10:39:57.378Z,83.69
2023-01-02T10:41:09.973Z,83.62
2023-01-02T10:42:14.820Z,83.62
2023-01-02T10:43:18.847Z,83.67
2023-01-02T10:44:26.077Z,83.40
2023-01-02T10:45:28.747Z,83.63
2023-01-02T10:46:35.304Z,83.55
2023-01-02T10:47:40.267Z,83.85
2023-01-02T10:48:50.078Z,83.56
2023-01-02T10:49:55.882Z,83.52
2023-01-02T10:51:02.935Z,83.61
2023-01-02T10:52:12.545Z,83.44
2023-01-02T10:53:23.381Z,83.65
2023-01-02T10:54:25.906Z,83.57
2023-01-02T10:55:33.987Z,83.50
2023-01-02T10:56:38.863Z,83.42
2023-01-02T10:57:44.095Z,83.45
2023-01-02T10:58:48.137Z,83.28
2023-01-02T10:59:56.365Z,83.62
2023-01-02T11:01:06.625Z,83.40
2023-01-02T11:02:26.512Z,83.17
2023-01-02T11:03:30.220Z,83.02
2023-01-02T11:04:41.900Z,83.00
2023-01-02T11:06:02.157Z,82.91
2023-01-02T11:07:25.268Z,82.85
2023-01-02T11:08:36.273Z,83.00
2023-01-02T11:09:55.144Z,82.74
2023-01-02T11:11:14.944Z,82.62
2023-01-02T11:12:22.548Z,82.36
2023-01-02T11:13:47.572Z,82.29
2023-01-02T11:15:11.031Z,82.06
2023-01-02T11:16:16.087Z,82.07
2023-01-02T11:17:21.624Z,81.57
2023-01-02T11:18:27.152Z,81.90
2023-01-02T11:19:30.153Z,81.75
2023-01-02T11:20:34.673Z,81.74
2023-01-02T11:21:41.453Z,81.55
2023-01-02T11:22:44.100Z,81.45
2023-01-02T11:23:47.446Z,81.63
2023-01-02T11:25:01.033Z,81.57
2023-01-02T11:26:06.491Z,81.43
2023-01-02T11:27:09.479Z,81.56
2023-01-02T11:28:18.302Z,81.16
2023-01-02T11:29:27.713Z,81.25
2023-01-02T11:30:38.321Z,81.00
2023-01-02T11:31:44.421Z,81.28
2023-01-02T11:32:47.373Z,81.36
2023-01-02T11:33:49.491Z,81.14
2023-01-02T11:34:58.747Z,81.27
2023-01-02T11:36:15.112Z,81.46
2023-01-02T11:37:19.968Z,81.29
2023-01-02T11:38:43.254Z,81.64
2023-01-02T11:39:59.512Z,81.40
2023-01-02T11:41:04.074Z,81.48
2023-01-02T11:42:35.075Z,81.41
2023-01-02T11:43:49.111Z,81.40
2023-01-02T11:44:58.311Z,81.35
2023-01-02T11:46:00.101Z,81.33
2023-01-02T11:47:05.584Z,81.31
2023-01-02T11:48:13.425Z,81.35
2023-01-02T11:49:20.918Z,81.24
2023-01-02T11:50:26.893Z,81.47
2023-01-02T11:51:31.904Z,81.35
2023-01-02T11:52:42.571Z,81.56
2023-01-02T11:53:46.206Z,81.44
2023-01-02T11:54:57.228Z,81.42
2023-01-02T11:56:07.096Z,81.33
2023-01-02T11:57:18.929Z,81.36
2023-01-02T11:58:27.743Z,81.41
2023-01-02T11:59:37.953Z,81.03
2023-01-02T12:00:41.984Z,81.43
2023-01-02T12:01:54.507Z,81.15
2023-01-02T12:03:04.953Z,81.40
2023-01-02T12:04:07.795Z,81.39
2023-01-02T12:05:13.920Z,81.41
2023-01-02T12:06:19.969Z,81.29
2023-01-02T12:07:39.235Z,81.27
2023-01-02T12:08:53.276Z,81.33
2023-01-02T12:10:05.087Z,81.12
2023-01-02T12:11:18.114Z,81.40
2023-01-02T12:12:43.058Z,81.44
2023-01-02T12:14:02.126Z,81.18
2023-01-02T12:15:28.805Z,81.34
2023-01-02T12:16:39.375Z,81.29
2023-01-02T12:18:02.636Z,81.20
2023-01-02T12:19:34.587Z,81.15
2023-01-02T12:20:47.198Z,81.06
2023-01-02T12:22:00.781Z,81.18
2023-01-02T12:23:30.766Z,81.12
2023-01-02T12:25:02.920Z,81.27
2023-01-02T12:26:11.895Z,81.35
2023-01-02T12:27:22.984Z,81.27
2023-01-02T12:28:39.721Z,81.18
2023-01-02T12:29:52.631Z,81.29
2023-01-02T12:31:07.740Z,81.28
2023-01-02T12:32:26.923Z,81.25
2023-01-02T12:33:45.425Z,81.15
2023-01-02T12:35:08.378Z,81.07
2023-01-02T12:36:31.289Z,80.95
2023-01-02T12:37:45.369Z,81.09
2023-01-02T12:39:04.802Z,81.18
2023-01-02T12:40:34.627Z,81.43
2023-01-02T12:42:01.398Z,81.20
2023-01-02T12:43:49.692Z,81.07
2023-01-02T12:45:02.560Z,80.95
2023-01-02T12:46:17.995Z,81.12
2023-01-02T12:47:43.531Z,81.05
2023-01-02T12:49:06.730Z,81.09
2023-01-02T12:50:29.035Z,80.75
2023-01-02T12:51:42.516Z,81.00
2023-01-02T12:52:59.088Z,80.88
2023-01-02T12:54:28.835Z,80.68
2023-01-02T12:55:46.214Z,80.80
2023-01-02T12:56:57.783Z,80.82
2023-01-02T12:58:07.191Z,80.61
2023-01-02T12:59:27.076Z,80.60
2023-01-02T13:00:46.699Z,80.20
2023-01-02T13:01:58.213Z,80.23
2023-01-02T13:03:25.057Z,80.35
2023-01-02T13:04:31.195Z,80.17
2023-01-02T13:05:39.811Z,80.26
2023-01-02T13:07:03.324Z,80.08
2023-01-02T13:08:16.133Z,79.90
2023-01-02T13:09:26.800Z,79.69
2023-01-02T13:10:29.399Z,79.43
2023-01-02T13:11:41.502Z,79.59
2023-01-02T13:12:45.176Z,79.27
2023-01-02T13:13:48.686Z,79.43
2023-01-02T13:14:54.296Z,79.13
2023-01-02T13:16:03.553Z,79.05
2023-01-02T13:17:27.243Z,79.01
2023-01-02T13:18:37.588Z,79.05
2023-01-02T13:20:08.316Z,79.10
2023-01-02T13:21:17.796Z,78.82
2023-01-02T13:22:28.830Z,78.77
2023-01-02T13:23:36.502Z,78.75
2023-01-02T13:24:38.617Z,78.62
2023-01-02T13:25:48.085Z,78.65
2023-01-02T13:26:53.584Z,78.33
2023-01-02T13:27:58.217Z,78.34
2023-01-02T13:29:06.607Z,78.20
2023-01-02T13:31:11.043Z,78.29
2023-01-02T13:32:26.469Z,78.31
2023-01-02T13:33:34.648Z,78.26
2023-01-02T13:34:41.961Z,78.38
2023-01-02T13:35:43.586Z,78.45
2023-01-02T13:36:48.562Z,78.49
2023-01-02T13:37:53.557Z,78.63
2023-01-02T13:39:18.462Z,78.68
2023-01-02T13:40:28.274Z,78.89
2023-01-02T13:41:58.142Z,78.86
2023-01-02T13:43:05.956Z,78.90
2023-01-02T13:44:08.488Z,78.78
2023-01-02T13:45:15.498Z,79.02
2023-01-02T13:47:01.290Z,79.55
2023-01-02T13:47:53.496Z,79.48
2023-01-02T13:49:01.280Z,79.50
2023-01-02T13:50:09.600Z,79.38
2023-01-02T13:51:16.596Z,79.15
2023-01-02T13:52:20.774Z,79.42
2023-01-02T13:53:32.260Z,79.51
2023-01-02T13:54:37.410Z,79.21
2023-01-02T13:56:03.921Z,79.66
2023-01-02T13:57:33.540Z,79.38
2023-01-02T13:59:00.803Z,79.77
2023-01-02T14:00:06.090Z,79.89
2023-01-02T14:02:02.996Z,79.93
2023-01-02T14:03:34.635Z,80.03
2023-01-02T14:04:41.661Z,80.14
2023-01-02T14:06:00.400Z,80.10
2023-01-02T14:07:49.176Z,80.35
2023-01-02T14:09:11.700Z,79.87
2023-01-02T14:10:40.949Z,80.38
2023-01-02T14:11:57.454Z,80.20
2023-01-02T14:13:05.733Z,80.33
2023-01-02T14:14:11.987Z,80.28
2023-01-02T14:15:18.007Z,80.33
2023-01-02T14:16:44.574Z,80.38
2023-01-02T14:17:54.111Z,80.84
2023-01-02T14:19:18.109Z,80.18
2023-01-02T14:20:23.253Z,80.69
2023-01-02T14:21:34.202Z,80.49
2023-01-02T14:22:46.752Z,80.62
2023-01-02T14:24:18.263Z,80.81
2023-01-02T14:25:13.265Z,80.63
2023-01-02T14:26:25.388Z,80.59
2023-01-02T14:27:38.301Z,80.86
2023-01-02T14:28:45.495Z,80.68